createdAt,value
2023-01-27T00:02:45.120Z,1022.3
2023-01-27T00:08:11.710Z,1022.3
2023-01-27T00:13:58.859Z,1022.3
2023-01-27T00:19:18.971Z,1022.2
2023-01-27T00:25:01.284Z,1022.2
2023-01-27T00:30:34.541Z,1022.1
2023-01-27T00:36:01.708Z,1022
2023-01-27T00:41:33.109Z,1022
2023-01-27T00:46:59.722Z,1021.9
2023-01-27T00:52:48.209Z,1021.9
2023-01-27T00:58:13.682Z,1021.8
2023-01-27T01:03:39.763Z,1021.8
2023-01-27T01:09:12.925Z,1021.7
2023-01-27T01:15:05.230Z,1021.8
2023-01-27T01:20:27.853Z,1021.7
2023-01-27T01:26:02.106Z,1021.8
2023-01-27T01:31:39.746Z,1021.8
2023-01-27T01:37:08.279Z,1021.7
2023-01-27T01:42:45.580Z,1021.7
2023-01-27T01:48:22.278Z,1021.6
2023-01-27T01:53:46.178Z,1021.5
2023-01-27T01:59:30.769Z,1021.4
2023-01-27T02:04:46.303Z,1021.4
2023-01-27T02:10:17.419Z,1021.5
2023-01-27T02:16:05.541Z,1021.4
2023-01-27T02:21:48.210Z,1021.4
2023-01-27T02:27:08.611Z,1021.4
2023-01-27T02:32:47.987Z,1021.3
2023-01-27T02:38:25.918Z,1021.3
2023-01-27T02:43:39.193Z,1021.3
2023-01-27T02:49:37.290Z,1021.2
2023-01-27T02:55:10.701Z,1021.2
2023-01-27T03:00:17.654Z,1021.1
2023-01-27T03:06:05.202Z,1021.2
2023-01-27T03:11:43.513Z,1021.2
2023-01-27T03:17:06.955Z,1021.2
2023-01-27T03:22:44.202Z,1021.2
2023-01-27T03:28:04.803Z,1021.3
2023-01-27T03:34:06.048Z,1021.3
2023-01-27T03:39:40.123Z,1021.2
2023-01-27T03:45:14.712Z,1021.2
2023-01-27T03:50:48.034Z,1021.3
2023-01-27T03:55:56.398Z,1021.3
2023-01-27T04:01:38.822Z,1021.2
2023-01-27T04:07:05.929Z,1021.2
2023-01-27T04:12:45.948Z,1021.3
2023-01-27T04:18:36.306Z,1021.3
2023-01-27T04:23:47.160Z,1021.4
2023-01-27T04:29:22.028Z,1021.4
2023-01-27T04:35:02.812Z,1021.3
2023-01-27T04:46:06.230Z,1021.3
2023-01-27T05:08:42.870Z,1021.3
2023-01-27T05:19:31.621Z,1021.4
2023-01-27T06:04:22.253Z,1021.5
2023-01-27T06:20:56.761Z,1021.3
2023-01-27T06:26:26.927Z,1021.4
2023-01-27T06:32:01.232Z,1021.3
2023-01-27T06:37:39.251Z,1021.2
2023-01-27T06:43:24.259Z,1021.2
2023-01-27T06:48:52.029Z,1021.3
2023-01-27T06:54:20.879Z,1021.4
2023-01-27T06:59:56.286Z,1021.4
2023-01-27T07:05:28.174Z,1021.5
2023-01-27T07:10:54.712Z,1021.6
2023-01-27T07:16:45.307Z,1021.5
2023-01-27T07:22:19.489Z,1021.7
2023-01-27T07:27:35.788Z,1021.7
2023-01-27T07:33:24.267Z,1021.7
2023-01-27T07:39:07.291Z,1021.6
2023-01-27T07:44:19.424Z,1021.7
2023-01-27T07:50:05.174Z,1021.7
2023-01-27T07:55:41.035Z,1021.7
2023-01-27T08:01:07.210Z,1021.9
2023-01-27T08:06:26.454Z,1021.8
2023-01-27T08:11:59.990Z,1021.7
2023-01-27T08:17:58.179Z,1021.7
2023-01-27T08:23:28.104Z,1021.7
2023-01-27T08:28:49.633Z,1021.6
2023-01-27T08:34:28.220Z,1021.5
2023-01-27T08:40:06.607Z,1021.7
2023-01-27T08:45:47.102Z,1021.8
2023-01-27T08:51:03.944Z,1021.8
2023-01-27T08:56:39.532Z,1021.8
2023-01-27T09:02:29.786Z,1022
2023-01-27T09:07:44.545Z,1022
2023-01-27T09:13:16.760Z,1022.1
2023-01-27T09:18:56.324Z,1022.2
2023-01-27T09:24:23.881Z,1022.2
2023-01-27T09:29:53.708Z,1022.2
2023-01-27T09:35:48.595Z,1022.2
2023-01-27T09:41:23.517Z,1022.3
2023-01-27T09:46:50.080Z,1022.4
2023-01-27T09:52:22.883Z,1022.4
2023-01-27T09:57:55.058Z,1022.5
2023-01-27T10:03:15.885Z,1022.5
2023-01-27T10:09:09.696Z,1022.4
2023-01-27T10:14:43.887Z,1022.5
2023-01-27T10:20:13.292Z,1022.6
2023-01-27T10:25:30.907Z,1022.3
2023-01-27T10:31:18.676Z,1022.4
2023-01-27T10:36:43.685Z,1022.3
2023-01-27T10:42:35.649Z,1022.3
2023-01-27T10:48:12.355Z,1022.2
2023-01-27T10:53:20.057Z,1022.3
2023-01-27T10:59:04.189Z,1022.2
2023-01-27T11:04:55.635Z,1022.3
2023-01-27T11:10:19.106Z,1022.2
2023-01-27T11:15:48.573Z,1022.1
2023-01-27T11:21:21.038Z,1022.2
2023-01-27T11:26:47.222Z,1022.1
2023-01-27T11:32:33.128Z,1022
2023-01-27T11:37:58.337Z,1021.9
2023-01-27T11:43:36.095Z,1021.9
2023-01-27T11:49:17.114Z,1021.9
2023-01-27T11:54:35.760Z,1021.8
2023-01-27T12:00:16.823Z,1021.6
2023-01-27T12:06:07.228Z,1021.7
2023-01-27T12:11:21.038Z,1021.7
2023-01-27T12:17:08.854Z,1021.7
2023-01-27T12:22:37.886Z,1021.7
2023-01-27T12:27:58.031Z,1021.7
2023-01-27T12:33:37.817Z,1021.6
2023-01-27T12:39:26.462Z,1021.5
2023-01-27T12:44:46.147Z,1021.6
2023-01-27T12:50:27.687Z,1021.5
2023-01-27T12:56:05.465Z,1021.5
2023-01-27T13:01:40.032Z,1021.5
2023-01-27T13:07:14.298Z,1021.5
2023-01-27T13:12:46.572Z,1021.6
2023-01-27T13:18:13.345Z,1021.6
2023-01-27T13:23:50.269Z,1021.7
2023-01-27T13:29:43.144Z,1021.8
2023-01-27T13:34:49.639Z,1022
2023-01-27T13:40:23.853Z,1021.9
2023-01-27T13:46:03.606Z,1021.9
2023-01-27T13:51:51.730Z,1021.9
2023-01-27T13:57:16.462Z,1021.9
2023-01-27T14:02:42.925Z,1021.8
2023-01-27T14:08:25.729Z,1021.8
2023-01-27T14:13:55.355Z,1021.8
2023-01-27T14:19:34.618Z,1022
2023-01-27T14:25:17.782Z,1022
2023-01-27T14:30:36.815Z,1021.9
2023-01-27T14:36:17.001Z,1022
2023-01-27T14:41:57.621Z,1022.1
2023-01-27T14:47:32.110Z,1022.1
2023-01-27T14:53:13.075Z,1022.3
2023-01-27T14:58:25.183Z,1022.4
2023-01-27T15:04:00.016Z,1022.6
2023-01-27T15:09:37.646Z,1022.5
2023-01-27T15:15:15.298Z,1022.6
2023-01-27T15:20:37.916Z,1022.5
2023-01-27T15:26:12.973Z,1022.5
2023-01-27T15:32:06.284Z,1022.7
2023-01-27T15:37:23.272Z,1022.5
2023-01-27T15:43:19.909Z,1022.6
2023-01-27T15:48:50.249Z,1022.6
2023-01-27T15:54:11.345Z,1022.7
2023-01-27T16:00:01.059Z,1022.8
2023-01-27T16:05:25.350Z,1023
2023-01-27T16:10:58.315Z,1023.1
2023-01-27T16:16:33.521Z,1023
2023-01-27T16:21:51.170Z,1023.1
2023-01-27T16:27:24.342Z,1023.2
2023-01-27T16:33:13.287Z,1023.2
2023-01-27T16:38:43.993Z,1023.3
2023-01-27T16:44:18.250Z,1023.3
2023-01-27T16:49:43.424Z,1023.5
2023-01-27T16:55:12.584Z,1023.4
2023-01-27T17:01:05.571Z,1023.5
2023-01-27T17:06:38.105Z,1023.5
2023-01-27T17:11:52.443Z,1023.6
2023-01-27T17:17:31.373Z,1023.7
2023-01-27T17:23:02.182Z,1023.5
2023-01-27T17:28:37.652Z,1023.6
2023-01-27T17:34:20.477Z,1023.6
2023-01-27T17:39:42.644Z,1023.6
2023-01-27T17:45:23.355Z,1023.6
2023-01-27T17:51:00.131Z,1023.6
2023-01-27T17:56:22.490Z,1023.7
2023-01-27T18:01:57.742Z,1023.7
2023-01-27T18:07:48.205Z,1023.8
2023-01-27T18:13:26.120Z,1023.9
2023-01-27T18:18:47.726Z,1023.9
2023-01-27T18:24:33.803Z,1023.9
2023-01-27T18:30:05.448Z,1023.9
2023-01-27T18:35:25.404Z,1023.8
2023-01-27T18:41:09.041Z,1023.7
2023-01-27T18:46:42.051Z,1023.9
2023-01-27T18:52:06.392Z,1023.8
2023-01-27T18:57:59.176Z,1023.8
2023-01-27T19:03:10.652Z,1023.8
2023-01-27T19:08:51.587Z,1023.9
2023-01-27T19:14:23.577Z,1023.7
2023-01-27T19:20:08.916Z,1023.9
2023-01-27T19:25:32.128Z,1023.9
2023-01-27T19:30:58.953Z,1023.9
2023-01-27T19:36:35.112Z,1024
2023-01-27T19:47:44.203Z,1023.9
2023-01-27T19:53:36.284Z,1024
2023-01-27T19:58:43.825Z,1024
2023-01-27T20:04:20.157Z,1024
2023-01-27T20:09:59.994Z,1024.3
2023-01-27T20:15:42.762Z,1024.2
2023-01-27T20:21:04.530Z,1024.2
2023-01-27T20:26:48.118Z,1024.2
2023-01-27T20:32:12.049Z,1024.2
2023-01-27T20:37:42.116Z,1024.2
2023-01-27T20:43:33.842Z,1024.2
2023-01-27T20:49:11.056Z,1024.2
2023-01-27T20:54:46.417Z,1024.2
2023-01-27T21:00:19.218Z,1024.2
2023-01-27T21:05:31.179Z,1024.4
2023-01-27T21:11:23.025Z,1024.2
2023-01-27T21:16:56.235Z,1024.2
2023-01-27T21:22:27.591Z,1024.2
2023-01-27T21:27:52.681Z,1024.3
2023-01-27T21:33:46.102Z,1024.1
2023-01-27T21:39:14.223Z,1024.1
2023-01-27T21:44:39.111Z,1024.2
2023-01-27T21:50:14.114Z,1024.3
2023-01-27T21:55:41.991Z,1024.3
2023-01-27T22:01:34.141Z,1024.2
2023-01-27T22:07:07.293Z,1024.3
2023-01-27T22:12:40.960Z,1024.2
2023-01-27T22:18:05.229Z,1024.1
2023-01-27T22:23:29.468Z,1024.1
2023-01-27T22:29:23.606Z,1024.1
2023-01-27T22:34:49.630Z,1024.1
2023-01-27T22:40:15.433Z,1024.1
2023-01-27T22:45:51.808Z,1024.2
2023-01-27T22:51:24.606Z,1024.2
2023-01-27T22:56:52.041Z,1024
2023-01-27T23:02:41.310Z,1024.3
2023-01-27T23:08:02.106Z,1024.1
2023-01-27T23:13:37.936Z,1024.2
2023-01-27T23:19:17.498Z,1024.3
2023-01-27T23:24:37.901Z,1024.3
2023-01-27T23:30:15.212Z,1024.3
2023-01-27T23:35:46.925Z,1024.3
2023-01-27T23:41:44.505Z,1024.3
2023-01-27T23:46:56.623Z,1024.4
2023-01-27T23:52:50.453Z,1024.4
2023-01-27T23:58:22.659Z,1024.4
